Jefferson, NC

9:39 PM EDT on April 30, 2017 (GMT -0400)
Ashe County

Weather History for KGEV - December, 2008

Change the Weather History Date:

Saturday, December 13, 2008

  Actual Average Record
Temperature  
Mean Temperature 32 °F -  
Max Temperature 42 °F 46 °F 66 °F (2007)
Min Temperature 21 °F 26 °F 7 °F (1982)
Degree Days  
Heating Degree Days 34    
Moisture  
Dew Point 17 °F    
Average Humidity 61    
Maximum Humidity 86    
Minimum Humidity 29    
Precipitation  
Precipitation 0.00 in - - ()
Sea Level Pressure  
Sea Level Pressure 30.22 in    
Wind  
Wind Speed 7 mph (SSW)    
Max Wind Speed 24 mph    
Max Gust Speed 44 mph    
Visibility 10 miles    
Events Snow    
Averages and records for this station are not official NWS values.
T = Trace of Precipitation, MM = Missing Value Source: NWS Daily Summary

Daily Weather History Graph

Daily Weather History Graph

Search for Another Location

Airport or City:

Trip Planner

Search our weather history database for the weather conditions in past years. The results will help you decide how hot, cold, wet, or windy it might be!

Date:

Astronomy

Dec. 13, 2008 Rise Set
Actual Time 7:29 AM EST 5:11 PM EST
Civil Twilight 7:00 AM EST 5:39 PM EST
Nautical Twilight 6:28 AM EST 6:12 PM EST
Astronomical Twilight 5:56 AM EST 6:43 PM EST
Moon 6:17 PM EST (12/13) 8:39 AM EST (12/13)
Length of Visible Light 10h 39m
Length of Day
9h 42m
Full, 98% of the Moon is Illuminated
Dec 13
Full
Dec 19
Last Quarter
Dec 27
New
Jan 4
First Quarter
Jan 10
Full

Hourly Weather History & Observations

Time (EST) Temp. Windchill Dew Point Humidity Pressure Visibility Wind Dir Wind Speed Gust Speed Precip Events Conditions
12:02 AM 24.8 °F 14.6 °F 19.4 °F 80% 30.08 in 10.0 mi WNW 10.4 mph 18.4 mph N/A Snow Light Snow
12:22 AM 24.8 °F 16.1 °F 19.4 °F 80% 30.08 in 7.0 mi WNW 8.1 mph 19.6 mph N/A Snow Light Snow
12:43 AM 24.8 °F 12.9 °F 19.4 °F 80% 30.08 in 10.0 mi WNW 13.8 mph 23.0 mph N/A   Overcast
1:02 AM 24.8 °F 12.4 °F 19.4 °F 80% 30.07 in 10.0 mi NW 15.0 mph 24.2 mph N/A   Overcast
1:23 AM 24.8 °F 9.3 °F 17.6 °F 74% 30.05 in 10.0 mi WNW 24.2 mph 43.7 mph N/A   Overcast
1:42 AM 24.8 °F 9.6 °F 17.6 °F 74% 30.05 in 10.0 mi NW 23.0 mph 38.0 mph N/A   Mostly Cloudy
2:22 AM 24.8 °F - 19.4 °F 80% 30.10 in 10.0 mi Calm Calm - N/A   Overcast
2:42 AM 24.8 °F 16.1 °F 19.4 °F 80% 30.11 in 10.0 mi NW 8.1 mph 17.3 mph N/A   Overcast
3:02 AM 24.8 °F 15.3 °F 19.4 °F 80% 30.12 in 10.0 mi West 9.2 mph 17.3 mph N/A   Overcast
3:22 AM 24.8 °F 17.9 °F 17.6 °F 74% 30.12 in 10.0 mi West 5.8 mph - N/A   Overcast
3:42 AM 24.8 °F 17.9 °F 17.6 °F 74% 30.13 in 10.0 mi WNW 5.8 mph - N/A   Overcast
4:02 AM 24.8 °F 15.3 °F 17.6 °F 74% 30.14 in 10.0 mi West 9.2 mph - N/A   Scattered Clouds
4:22 AM 23.0 °F 17.0 °F 17.6 °F 80% 30.14 in 10.0 mi WNW 4.6 mph - N/A   Scattered Clouds
5:02 AM 23.0 °F - 17.6 °F 80% 30.14 in 10.0 mi Calm Calm - N/A   Clear
5:24 AM 23.0 °F 14.7 °F 17.6 °F 80% 30.14 in 10.0 mi West 6.9 mph - N/A   Clear
5:42 AM 23.0 °F 11.7 °F 17.6 °F 80% 30.14 in 10.0 mi WNW 11.5 mph - N/A   Clear
6:02 AM 21.2 °F 10.9 °F 17.6 °F 86% 30.15 in 10.0 mi WNW 9.2 mph - N/A   Clear
6:44 AM 21.2 °F 10.1 °F 15.8 °F 80% 30.18 in 10.0 mi West 10.4 mph - N/A   Clear
7:02 AM 21.2 °F - 15.8 °F 80% 30.19 in 10.0 mi Calm Calm - N/A   Clear
7:22 AM 21.2 °F - 15.8 °F 80% 30.20 in 10.0 mi Calm Calm - N/A   Clear
7:44 AM 21.2 °F 16.4 °F 15.8 °F 80% 30.21 in 10.0 mi West 3.5 mph - N/A   Clear
8:03 AM 23.0 °F 18.4 °F 15.8 °F 74% 30.22 in 10.0 mi SW 3.5 mph - N/A   Clear
8:22 AM 23.0 °F - 15.8 °F 74% 30.23 in 10.0 mi Calm Calm - N/A   Clear
8:42 AM 24.8 °F - 17.6 °F 74% 30.25 in 10.0 mi Calm Calm - N/A   Clear
9:02 AM 24.8 °F - 17.6 °F 74% 30.27 in 10.0 mi Calm Calm - N/A   Clear
9:22 AM 26.6 °F - 15.8 °F 64% 30.27 in 10.0 mi Calm Calm - N/A   Clear
9:42 AM 28.4 °F 24.6 °F 15.8 °F 59% 30.27 in 10.0 mi SW 3.5 mph - N/A   Clear
10:02 AM 30.2 °F 26.7 °F 15.8 °F 55% 30.28 in 10.0 mi WSW 3.5 mph - N/A   Clear
10:22 AM 30.2 °F 26.7 °F 14.0 °F 51% 30.29 in 10.0 mi West 3.5 mph - N/A   Clear
10:42 AM 30.2 °F - 14.0 °F 51% 30.29 in 10.0 mi Calm Calm - N/A   Clear
11:02 AM 32.0 °F - 14.0 °F 48% 30.30 in 10.0 mi Calm Calm - N/A   Clear
11:23 AM 35.6 °F - 15.8 °F 44% 30.29 in 10.0 mi Calm Calm - N/A   Clear
11:42 AM 35.6 °F - 15.8 °F 44% 30.28 in 10.0 mi Calm Calm - N/A   Clear
12:02 PM 35.6 °F - 12.2 °F 38% 30.27 in 10.0 mi Calm Calm - N/A   Clear
12:23 PM 35.6 °F - 12.2 °F 38% 30.26 in 10.0 mi Calm Calm - N/A   Clear
1:02 PM 37.4 °F 34.9 °F 12.2 °F 36% 30.24 in 10.0 mi East 3.5 mph - N/A   Clear
1:23 PM 39.2 °F 35.9 °F 12.2 °F 33% 30.24 in 10.0 mi ESE 4.6 mph - N/A   Clear
1:42 PM 39.2 °F - 10.4 °F 31% 30.24 in 10.0 mi Calm Calm - N/A   Clear
2:03 PM 41.0 °F 39.0 °F 10.4 °F 29% 30.23 in 10.0 mi South 3.5 mph - N/A   Clear
2:22 PM 41.0 °F 39.0 °F 10.4 °F 29% 30.23 in 10.0 mi SE 3.5 mph - N/A   Clear
2:42 PM 42.8 °F - 12.2 °F 29% 30.23 in 10.0 mi Calm Calm - N/A   Clear
3:02 PM 41.0 °F 38.0 °F 15.8 °F 36% 30.23 in 10.0 mi SE 4.6 mph - N/A   Clear
3:22 PM 41.0 °F 39.0 °F 15.8 °F 36% 30.23 in 10.0 mi SE 3.5 mph - N/A   Clear
3:42 PM 37.4 °F 32.1 °F 15.8 °F 41% 30.24 in 10.0 mi SE 6.9 mph - N/A   Clear
4:03 PM 37.4 °F 32.8 °F 15.8 °F 41% 30.25 in 10.0 mi SE 5.8 mph - N/A   Clear
4:22 PM 37.4 °F 32.8 °F 15.8 °F 41% 30.25 in 10.0 mi SE 5.8 mph - N/A   Clear
4:42 PM 35.6 °F 31.7 °F 15.8 °F 44% 30.26 in 10.0 mi SSE 4.6 mph - N/A   Clear
5:02 PM 35.6 °F 31.7 °F 15.8 °F 44% 30.27 in 10.0 mi SSE 4.6 mph - N/A   Clear
5:22 PM 35.6 °F 31.7 °F 15.8 °F 44% 30.27 in 10.0 mi SE 4.6 mph - N/A   Clear
5:42 PM 35.6 °F 31.7 °F 17.6 °F 48% 30.27 in 10.0 mi SSE 4.6 mph - N/A   Clear
6:22 PM 35.6 °F 31.7 °F 21.2 °F 56% 30.29 in 10.0 mi SSE 4.6 mph - N/A   Clear
6:43 PM 33.8 °F 28.6 °F 19.4 °F 56% 30.29 in 10.0 mi SSE 5.8 mph - N/A   Clear
7:02 PM 33.8 °F 29.6 °F 21.2 °F 60% 30.30 in 10.0 mi SSE 4.6 mph - N/A   Clear
7:22 PM 33.8 °F 30.8 °F 21.2 °F 60% 30.31 in 10.0 mi SSE 3.5 mph - N/A   Clear
7:42 PM 32.0 °F 27.5 °F 21.2 °F 64% 30.31 in 10.0 mi SSE 4.6 mph - N/A   Clear
8:02 PM 33.8 °F 28.6 °F 21.2 °F 60% 30.31 in 10.0 mi SSE 5.8 mph - N/A   Clear
8:22 PM 30.2 °F 26.7 °F 21.2 °F 69% 30.31 in 10.0 mi SSE 3.5 mph - N/A   Clear
8:42 PM 30.2 °F - 21.2 °F 69% 30.31 in 10.0 mi Calm Calm - N/A   Clear
9:02 PM 30.2 °F 26.7 °F 21.2 °F 69% 30.31 in 10.0 mi SSE 3.5 mph - N/A   Clear
9:22 PM 30.2 °F 25.4 °F 23.0 °F 75% 30.32 in 10.0 mi South 4.6 mph - N/A   Clear
9:42 PM 30.2 °F 25.4 °F 21.2 °F 69% 30.31 in 10.0 mi SSE 4.6 mph - N/A   Scattered Clouds
10:02 PM 32.0 °F 25.6 °F 21.2 °F 64% 30.32 in 10.0 mi South 6.9 mph - N/A   Scattered Clouds
10:22 PM 32.0 °F 28.7 °F 21.2 °F 64% 30.33 in 10.0 mi South 3.5 mph - N/A   Clear
10:44 PM 32.0 °F 28.7 °F 21.2 °F 64% 30.33 in 10.0 mi South 3.5 mph - N/A   Mostly Cloudy
11:02 PM 32.0 °F 27.5 °F 21.2 °F 64% 30.32 in 10.0 mi South 4.6 mph - N/A   Mostly Cloudy
11:22 PM 32.0 °F 27.5 °F 21.2 °F 64% 30.32 in 10.0 mi South 4.6 mph - N/A   Scattered Clouds
11:42 PM 32.0 °F 27.5 °F 21.2 °F 64% 30.31 in 10.0 mi South 4.6 mph - N/A   Scattered Clouds